Timeline UpdatesTrip UpdatesNews PostsPvt PostsTravel TipsAdmin PostsConv PostsFollowed PostsChat RequestsBlog PostsPNR Posts

Disclaimer
Search
 
 
Tue Sep 30, 2014 21:26:03 ISTHomeTrainsΣChainsAtlasPNRForumGalleryNewsFAQTripsMembersLoginFeedback
No Recent News for this Train
Other Trains in the News **new
Latest...
The 15483 Alipurduar Jn. - Delhi Sikkim Mahananda Express scheduled to leave Alipurduar Junction at 07.15 hours of 2nd August 2014 is cancelled as the 15484 Delhi - Alipurduar Jn. Sikkim Mahananda Express scheduled to leave Delhi on 31st July 2014 has been cancelled by Northern Railway.
Thu Jul 31, 2014 (07:59PM)
⇐ Return Journey: Train# 15483

14084⇒15484/Sikkim Mahananda Express

Time-Table HAS CHANGED.
Sep 04 (12:24AM)
Change Departure Station:
Change Arrival Station:
Post a Train Travel TipPost a Train Travel Tip **new
Post a Comment/Question/Picture/VideoPost a Comment/Question/Picture/Video
Pantry/Catering
✓ Pantry Car Avbl
✓ Catering Avbl
RSA - Rake Sharing
Rake/Coach Composition
LOCO-SLR-GS-GS-GS-S1-S2-S3-S4-S5-S6-S7-S8-S9-S10-S11-PC-B1-AB-GS-GS-GS-SLR
Loco
DLI - PNBE: Mughalsarai shed WAP-4 or Ghaziabad shed WAP-4/7 PNBE...
Read more...
- APDJ: WDP4/4B of Siliguri shed. **Spotted with MGS WAP-4 22739 at MGS on 30/03/2013**
News    PNR    Forum    Time-Table    Availability    Fare Chart    Map    Arr/Dep History    Trips    Gallery    ΣChains    X/O    Timeline    
Travel Time: 6h 21m    11 halts    Distance: 316 km    Avg Speed: 49 km/hr
Type: Mail/Express
Zone: NFR/Northeast Frontier
Departs @ 06:35 (Avg 29m late)
Platform# 9
SMTWTFS
Old Delhi Junction/DLI 
Arrives @ 12:56 (Avg 52m late)
Platform# 3
SMTWTFS
Bharthana/BNT 

11 halts. 45 intermediate Stations between Old Delhi Junction and Bharthana

Show ALL intermediate Stations  Show Old Time-Table

#CodeStation NameX/OArrivesAvgDepartsAvgHaltPFDay#KmSpeedElevZoneAddress
1DLIOld Delhi Junction (16)»  -06:40 06:35+29910.027219mNRNear Chandni Chowk Metro Station, Delhi NCT
2DSAShahdara Junction (4)X  06:56 06:49+3306:58 06:51+342m216.325212mNRCircular Rd, Delhi NCT
3GZBGhaziabad Junction (6)X  07:26 07:24+3007:28 07:26+332m2119.976217mNRGhaziabad, Uttar Pradesh
4CHLChola (3)  08:04+4608:06+512m--168.058204mNCRTahsil Bulandshahar, Uttar Pradesh
5KRJKhurja Junction (4)X  08:21+5108:23+532m2182.671199mNCRBulandshahr, Uttar Pradesh
6ALJNAligarh Junction (4)X  09:00+4909:05+495m11126.182192mNCRAligarh, Uttar Pradesh
7HRSHathras Junction (3)X  09:27+5809:32+565m11156.286183mNCRMahamaya Nagar(05722-242803), Uttar Pradesh
8JLSJalesar Road (1)X  09:46+5909:48+1:052m11176.323172mNCRMDR 106W, Uttar Pradesh
9TDLTundla Junction (5)X  11:00+3811:08+388m31204.252167mNCRDistt.Firozabad, Uttar Pradesh
10FZDFirozabad (4)  11:30 11:27+4111:32+412 5m21220.866164mNCRFirozabad, Uttar Pradesh
11SKBShikohabad Junction (4)X  11:53 11:50+4011:55+402 5m21240.683166mNCRDistrict Firozabad, Uttar Pradesh
12ETWEtawah (5)  12:38 12:35+4412:40+462 5m31296.075154mNCRDistt. Etawah, Uttar Pradesh
13BNTBharthana (3)•  12:56+5212:58+522m31315.969147mNCRBharthana, Uttar Pradesh
14ULDAchalda (3)  13:15+5213:17+402m31335.463147mNCRDist. Auraiya(05688-1072), Uttar Pradesh
15PHDPhaphund (4)X  13:33+3813:35+382m31352.270146mNCRdist. Auraiya, Uttar Pradesh
16JJKJhinjhak (3)X  13:52+3913:54+392m31372.067140mNCRAuraiya, Uttar Pradesh
17RURARura (4)  14:11+4014:13+402m31391.160137mNCRJhinjhak, Uttar Pradesh
18PNKPanki (3) new halt!!X  14:46+4014:48+432m21423.929129mNCRKANPUR-208 020, Uttar Pradesh
19CNBKanpur Central (10)X  15:12+5015:20+548m51435.478128mNCRKANPUR-208 001, Uttar Pradesh
20FTPFatehpur (3)  16:23 16:20+1:2216:25+1:242 5m21513.078120mNCRFatehpur, Uttar Pradesh
21ALDAllahabad Junction (10)X  17:55+1:3118:05+1:3910m41629.739100mNCRAllahabad 211003, Uttar Pradesh
22NYNNaini Junction (4)  18:16+2:0318:18+2:072m11636.88698mNCRAllahabad, Uttar Pradesh
23BDLVindhyachal (3)X  19:10+2:5319:12+2:562m21711.62488mNCRMirzapur, Uttar Pradesh
24MZPMirzapur (3)X  19:33 19:30+2:4519:35+2:502 5m21718.94588mNCRMirzapur, Uttar Pradesh
25MGSMughal Sarai Junction (8)  21:00+3:5621:15+3:5215m11782.16683mECRMughalsarai 232101, Uttar Pradesh
26BXRBuxar (3)X  22:41+3:5522:43+3:562m--1876.09167mECRBuxar, Bihar
27ARAAra Junction (3)  23:28+3:5123:30+3:522m--1944.58863mECRarrah( 06182-233411), Bihar
28DNRDanapur (5)  23:57+4:2323:59+4:252m--1984.01658mECRKhagaul, Bihar
29PNBEPatna Junction (10)X00:35+3:4501:00+3:4225m22993.47857mECRPatna 800001, Bihar
30BKPBakhtiyarpur Junction (5)X  01:35+4:3501:37+4:362m--21038.85851mECRPatna, Bihar
31MKAMokama Junction (4)X  02:22+4:5002:24+4:412m--21082.71448mECRPatna, Bihar
32BJUBarauni Junction (9)  03:55+4:1504:00+4:165m121103.34249mECRBegusarai, Bihar
33BGSBegusarai (3)  04:22 04:19+4:2904:24+4:282 5m--21116.84646mECRBegusarai, Bihar
34LKNLakhminia (3)  04:54 04:47+4:2604:56 04:49+4:282m--21134.64845mECRBegusarai, Bihar
35SKJSahibpur Kamal Junction (2)  05:08 05:01+4:2305:10 05:03+4:232m--21144.34641mECRShahpur Kamal, Bihar
36KGGKhagaria Junction (3)XO  05:36 05:19+4:1705:38 05:20+4:202 1m--21156.72043mECRKhagaria, Bihar
37MNEMansi Junction (4)  05:46+4:1805:48+4:212m--21165.54243mECRMansi, Bihar
38MSKMahes Khunt (2)  06:03+4:1906:05+4:202m--21175.93237mECRMaheshkhunt, Bihar
39PSRPasraha (3)XO  06:28+4:2806:30+4:372m--21188.22541mECRPasraha, Bihar
40NNRNarayanpur (2)XOO  06:58+4:2507:00+4:262m--21199.82739mECRNarayanpur, Bihar
41NNANaugachia (3)X  08:04 07:53+3:5708:06 07:55+3:572m121223.46237mECRBhagalpur, Bihar
42KUEKurselaX  08:36 08:13+3:5408:38 08:15+3:542m--21241.94231mECRNH 31, Bihar
43CRRKaragola RoadX  08:55 08:39+3:5608:57 08:41+3:562m--21258.96536mECRLachhmipur, Bihar
44SMOSemapurX  09:11 08:51+3:4309:13 08:53+3:462m--21269.61935mECRKatihar, Bihar
45KIRKatihar Junction (7)  09:30+4:1209:50+4:1320m621281.25135mNFRKatihar 854105, Bihar
46LAVLabha (2)  10:16 10:17+4:0410:18 10:19+4:052m121304.15429mNFRDist : Katihar, Bihar
47AZRAzamnagar Road (3)X  10:41 10:43+4:0510:43 10:45+4:062m--21325.85334mNFRAzamnagar, Bihar
48BOEBarsoi Junction (3)  10:56 11:00+4:0910:58 11:02+4:182m--21339.17337mNFRdist- katihar, Bihar
49DLKDalkhola (3)  11:21 11:26+4:2311:23 11:28+4:232m--21368.27144mNFRDalkola, West Bengal
50KNEKishanGanj (3)  11:48 11:52+5:0011:50 11:54+5:012m121396.77652mNFRKishanganj, Bihar
51AUBAluabari Road (2)  12:15 12:18+4:2212:17 12:20+4:222m221427.3490mNFRDist - uttar Dinajpur, West Bengal
52NJPNew Jalpaiguri Junction (8)X  13:30+4:5413:45+4:5415m121484.122114mNFRCity-Siliguri . Dist-Jalpaiguri, West Bengal
53SGUJSiliguri Junction (5)O  14:05+4:2214:10 14:15+4:285 10m421491.361120mNFRDist-Darjeeling Siliguri-734001, West Bengal
54NMZNew Mal Junction (3)X  15:06 15:02+4:5815:11 15:07+4:575m--21539.167161mNFRDist - Jalpaiguri, West Bengal
55BNVBinnaguri (3)  15:50 15:47+5:1915:52+5:182 5m--21583.449132mNFRDist : jalpaiguri, West Bengal
56DLODalgaon (3)  16:03+5:1316:05+5:132m--21592.447 NFRDist : Alipurduar, West Bengal
57HSAHasimara (3)X  16:40 16:37+5:1916:42 16:39+5:222m--21617.717123mNFRDist - Alipurduar, West Bengal
58APDJAlipur Duar Junction (3)  18:00 18:45----21652.5-53mNFRDist - Alipurduar, West Bengal
Scroll to Top
Scroll to Bottom